Deansboro, New York
Current Conditions -  °F | °C
As of 10:53 PM on Thursday 20 Nov 2014 (Local Time) from KRME Reporting Station
Overcast Overcast  
Wind Chill: 13°   Ceiling: 3400
Heat Index: 25°   Visibility: 10mi
Dew Point: 14°   Wind: 14mph
Humidity: 63%   Direction: 250°WSW
Pressure: 29.95"   Gusts: NA
Location:  42.99°N, 75.43°W
Report Text: KRME 210353Z AUTO 25012KT 10SM BKN034 BKN055 OVC100 M04/M10 A2995 RMK AO2 SLP145 T10391100
Loading
Personal Weather Stations






























Interactive Weather Map New forecast layout! Learn more

10-Day Weather Forecast

Advertisements
Track Severe Weather on mobile